Time;durP1;ratioP1;P1;durP2;ratioP2;P2;SDS_P1;SDS_P2;PMS_P1;PMS_P2;Temp;Humidity;BMP_temperature;BMP_pressure;BME280_temperature;BME280_humidity;BME280_pressure;Samples;Min_cycle;Max_cycle;Signal;HPM_P1;HPM_P2
2023/06/11 00:01:41;;;;;;;54.42;41.13;;;29.00;99.90;;;;;;5055303;28;20432;-69
2023/06/11 00:04:08;;;;;;;52.70;40.85;;;29.00;99.90;;;;;;5055355;28;20085;-69
2023/06/11 00:06:35;;;;;;;54.13;41.15;;;29.00;99.90;;;;;;5055714;28;20424;-69
2023/06/11 00:09:02;;;;;;;121.72;89.88;;;29.00;99.90;;;;;;5055275;28;20025;-69
2023/06/11 00:11:28;;;;;;;167.55;131.20;;;29.00;99.90;;;;;;5055077;28;20033;-69
2023/06/11 00:13:55;;;;;;;86.22;64.47;;;29.10;99.90;;;;;;5054978;28;20372;-69
2023/06/11 00:16:22;;;;;;;87.53;62.05;;;29.10;99.90;;;;;;5054926;28;20115;-69
2023/06/11 00:18:48;;;;;;;70.57;52.08;;;29.10;99.90;;;;;;5055008;28;20021;-69
2023/06/11 00:21:15;;;;;;;75.40;53.00;;;29.10;99.90;;;;;;5052137;28;20071;-69
2023/06/11 00:23:42;;;;;;;61.20;48.33;;;29.10;99.90;;;;;;5034957;28;20430;-68
2023/06/11 00:26:11;;;;;;;75.22;51.65;;;29.10;99.90;;;;;;5034882;28;20025;-69
2023/06/11 00:28:37;;;;;;;91.60;63.70;;;29.30;99.90;;;;;;5034806;28;20049;-70
2023/06/11 00:31:04;;;;;;;95.32;67.32;;;29.20;99.90;;;;;;5034880;28;20443;-69
2023/06/11 00:33:31;;;;;;;86.18;62.33;;;29.30;99.90;;;;;;5034651;28;20021;-69
2023/06/11 00:35:58;;;;;;;105.15;49.35;;;;;;;;;;5034442;28;20071;-68
2023/06/11 00:38:25;;;;;;;121.50;43.70;;;;;;;;;;5035645;28;20033;-68
2023/06/11 00:40:52;;;;;;;60.28;36.00;;;;;;;;;;5034299;28;20467;-69
2023/06/11 00:43:21;;;;;;;102.35;37.92;;;29.50;99.90;;;;;;5034478;28;20387;-69
2023/06/11 00:45:50;;;;;;;52.15;35.38;;;29.50;99.90;;;;;;5034594;28;20053;-69
2023/06/11 00:48:20;;;;;;;81.90;36.42;;;29.40;99.90;;;;;;5034448;28;20034;-68
2023/06/11 00:50:49;;;;;;;66.07;34.78;;;29.50;99.90;;;;;;5034448;28;20033;-69
2023/06/11 00:53:17;;;;;;;66.32;40.17;;;29.50;99.90;;;;;;5034468;28;20489;-69
2023/06/11 00:55:45;;;;;;;86.60;55.45;;;29.60;99.90;;;;;;5034469;28;20032;-71
2023/06/11 00:58:14;;;;;;;135.85;68.90;;;29.60;99.90;;;;;;5034308;28;20045;-72
2023/06/11 01:00:45;;;;;;;884.15;493.70;;;29.70;99.90;;;;;;5034347;28;20163;-72
2023/06/11 01:03:17;;;;;;;567.13;250.55;;;29.70;99.90;;;;;;5034420;28;20034;-71
2023/06/11 01:05:48;;;;;;;;;;;29.70;99.90;;;;;;5034529;28;20061;-70
2023/06/11 01:08:17;;;;;;;358.80;224.65;;;29.70;99.90;;;;;;5034007;28;20403;-69
2023/06/11 01:10:45;;;;;;;308.45;158.88;;;29.70;99.90;;;;;;5033823;28;20036;-68
2023/06/11 01:13:12;;;;;;;362.90;169.18;;;29.80;99.90;;;;;;5033923;28;20125;-68
2023/06/11 01:15:38;;;;;;;116.95;62.42;;;29.80;99.90;;;;;;5033841;28;20018;-68
2023/06/11 01:18:23;;;;;;;178.93;85.78;;;29.90;99.90;;;;;;5033725;28;20064;-68
2023/06/11 01:21:01;;;;;;;357.25;151.35;;;29.90;99.90;;;;;;5033828;28;20047;-71
2023/06/11 01:23:31;;;;;;;245.57;149.55;;;30.00;99.90;;;;;;5034113;28;20021;-69
2023/06/11 01:26:12;;;;;;;235.95;121.53;;;29.90;99.90;;;;;;5033832;28;20475;-70
2023/06/11 01:28:41;;;;;;;102.30;55.70;;;30.00;99.90;;;;;;5033614;28;20041;-69
2023/06/11 01:31:14;;;;;;;181.38;112.93;;;30.00;99.90;;;;;;5033681;28;20025;-69
2023/06/11 01:33:43;;;;;;;81.35;47.80;;;30.00;99.90;;;;;;5033479;28;20033;-69
2023/06/11 01:36:10;;;;;;;113.88;63.78;;;30.00;99.90;;;;;;5034185;28;20037;-69
2023/06/11 01:41:09;;;;;;;227.50;126.10;;;30.00;99.90;;;;;;5034131;28;20028;-68
2023/06/11 01:43:35;;;;;;;190.25;92.30;;;30.10;99.90;;;;;;5034270;28;20017;-68
2023/06/11 01:46:04;;;;;;;89.55;56.47;;;30.20;99.90;;;;;;5034099;28;20025;-68
2023/06/11 01:48:31;;;;;;;123.78;67.53;;;30.20;99.90;;;;;;5034093;28;20030;-68
2023/06/11 01:50:58;;;;;;;93.72;53.33;;;30.30;99.90;;;;;;5033535;28;20052;-69
2023/06/11 01:53:25;;;;;;;99.47;63.67;;;30.40;99.90;;;;;;5033740;28;20021;-69
2023/06/11 01:55:52;;;;;;;115.95;72.13;;;30.50;99.90;;;;;;5038004;28;20036;-69
2023/06/11 01:58:18;;;;;;;70.28;40.33;;;30.50;99.90;;;;;;5042030;28;20109;-69
2023/06/11 02:00:47;;;;;;;108.78;52.00;;;30.60;99.90;;;;;;5043834;28;20013;-69
2023/06/11 02:03:15;;;;;;;61.95;34.47;;;30.60;99.90;;;;;;5042678;28;20080;-69
2023/06/11 02:05:43;;;;;;;108.35;41.50;;;30.50;99.90;;;;;;5043840;28;20017;-68
2023/06/11 02:08:10;;;;;;;43.83;26.70;;;30.60;99.90;;;;;;5043989;28;20021;-70
2023/06/11 02:10:37;;;;;;;118.50;51.70;;;30.60;99.90;;;;;;5043201;28;20064;-68
2023/06/11 02:13:04;;;;;;;611.42;285.20;;;30.50;99.90;;;;;;5038955;28;20025;-68
2023/06/11 02:15:30;;;;;;;405.50;163.07;;;30.60;99.90;;;;;;5039007;28;21241;-68
2023/06/11 02:17:57;;;;;;;457.90;204.18;;;30.60;99.90;;;;;;5042996;28;20397;-68
2023/06/11 02:20:24;;;;;;;605.42;304.25;;;30.70;99.90;;;;;;5038869;28;20048;-68
2023/06/11 02:22:51;;;;;;;722.15;442.55;;;30.70;99.90;;;;;;5042394;28;20037;-69
2023/06/11 02:25:18;;;;;;;473.48;199.13;;;30.80;99.90;;;;;;5040136;28;20025;-68
2023/06/11 02:27:44;;;;;;;157.07;70.40;;;30.90;99.90;;;;;;5042203;28;20108;-68
2023/06/11 02:30:11;;;;;;;192.48;76.75;;;30.90;99.90;;;;;;5041288;28;20030;-71
2023/06/11 02:32:40;;;;;;;128.82;55.20;;;30.80;99.90;;;;;;5041848;28;20112;-73
2023/06/11 02:35:07;;;;;;;129.60;56.65;;;30.80;99.90;;;;;;5042111;28;20022;-72
2023/06/11 02:37:34;;;;;;;169.73;95.95;;;30.80;99.90;;;;;;5040517;28;20018;-74
2023/06/11 02:40:01;;;;;;;123.22;72.70;;;30.80;99.90;;;;;;5041911;28;20092;-74
2023/06/11 02:42:27;;;;;;;98.85;55.30;;;30.80;99.90;;;;;;5042234;28;20014;-71
2023/06/11 02:44:54;;;;;;;476.15;242.50;;;30.80;99.90;;;;;;5040812;28;20018;-70
2023/06/11 02:47:21;;;;;;;310.38;184.30;;;30.90;99.90;;;;;;5042313;28;20017;-72
2023/06/11 02:49:47;;;;;;;131.88;78.10;;;31.00;99.90;;;;;;5042175;28;20494;-70
2023/06/11 02:52:14;;;;;;;165.40;85.10;;;31.20;99.90;;;;;;5040485;28;20063;-72
2023/06/11 02:54:41;;;;;;;81.07;43.88;;;31.30;99.90;;;;;;5041976;28;20543;-72
2023/06/11 02:57:08;;;;;;;122.97;57.35;;;31.30;99.90;;;;;;5042403;28;20488;-72
2023/06/11 02:59:34;;;;;;;432.20;175.95;;;31.30;99.90;;;;;;5040886;28;20021;-73
2023/06/11 03:02:01;;;;;;;842.45;548.03;;;31.20;99.90;;;;;;5038852;28;20021;-74
2023/06/11 03:04:28;;;;;;;442.25;272.10;;;31.30;99.90;;;;;;5045978;28;20028;-73
2023/06/11 03:06:55;;;;;;;409.38;266.15;;;31.30;99.90;;;;;;5044491;28;20017;-73
2023/06/11 03:09:23;;;;;;;225.82;143.32;;;31.40;99.90;;;;;;5045967;28;20100;-74
2023/06/11 03:11:51;;;;;;;375.40;259.88;;;31.50;99.90;;;;;;5046699;28;20029;-72
2023/06/11 03:14:20;;;;;;;76.45;50.22;;;31.50;99.90;;;;;;5045167;28;20018;-72
2023/06/11 03:16:47;;;;;;;346.65;265.17;;;31.40;99.90;;;;;;5044982;28;20110;-72
2023/06/11 03:19:14;;;;;;;81.80;60.30;;;31.40;99.90;;;;;;5047066;28;20370;-75
2023/06/11 03:21:41;;;;;;;141.35;97.20;;;31.40;99.90;;;;;;5045508;28;20025;-71
2023/06/11 03:24:08;;;;;;;73.32;50.90;;;31.40;99.90;;;;;;5045574;28;20386;-72
2023/06/11 03:26:34;;;;;;;48.42;36.42;;;31.40;99.90;;;;;;5049954;28;20033;-72
2023/06/11 03:29:01;;;;;;;139.25;84.18;;;31.30;99.90;;;;;;5046787;28;20029;-69
2023/06/11 03:31:28;;;;;;;110.07;59.75;;;31.40;99.90;;;;;;5044375;28;20072;-75
2023/06/11 03:33:55;;;;;;;229.32;98.53;;;31.40;99.90;;;;;;5037941;28;20033;-72
2023/06/11 03:36:22;;;;;;;125.60;62.58;;;31.60;99.90;;;;;;5036721;28;20085;-70
2023/06/11 03:38:48;;;;;;;71.43;44.83;;;31.60;99.90;;;;;;5044788;28;20051;-69
2023/06/11 03:41:15;;;;;;;69.57;43.60;;;31.70;99.90;;;;;;5036245;28;20017;-72
2023/06/11 03:43:42;;;;;;;106.22;68.30;;;31.80;99.90;;;;;;5036492;28;20021;-70
2023/06/11 03:46:09;;;;;;;118.07;77.60;;;31.70;99.90;;;;;;5048800;28;20136;-71
2023/06/11 03:48:36;;;;;;;102.68;77.60;;;31.70;99.90;;;;;;5044122;28;20037;-72
2023/06/11 03:51:03;;;;;;;67.05;46.80;;;31.80;99.90;;;;;;5049341;28;20171;-76
2023/06/11 03:53:29;;;;;;;51.15;37.10;;;31.80;99.90;;;;;;5042680;28;20029;-70
2023/06/11 03:55:56;;;;;;;58.00;39.65;;;31.70;99.90;;;;;;5042696;28;20017;-75
2023/06/11 03:58:23;;;;;;;54.13;38.17;;;31.80;99.90;;;;;;5039778;28;20032;-71
2023/06/11 04:00:50;;;;;;;70.28;49.60;;;31.80;99.90;;;;;;5040982;28;20111;-71
2023/06/11 04:03:17;;;;;;;45.72;33.72;;;31.70;99.90;;;;;;5045297;28;20108;-72
2023/06/11 04:05:44;;;;;;;44.85;30.75;;;31.80;99.90;;;;;;5035607;28;20040;-70
2023/06/11 04:08:10;;;;;;;79.15;45.35;;;31.80;99.90;;;;;;5042248;28;20068;-72
2023/06/11 04:10:37;;;;;;;99.47;57.67;;;32.00;99.90;;;;;;5035972;28;20124;-71
2023/06/11 04:16:26;;;;;;;77.93;52.75;;;32.30;99.90;;;;;;5040772;28;20039;-70
2023/06/11 04:18:55;;;;;;;46.83;31.65;;;32.40;99.90;;;;;;5038422;28;20036;-70
2023/06/11 04:21:22;;;;;;;64.43;45.78;;;32.40;99.90;;;;;;5049684;28;20094;-70
2023/06/11 04:23:49;;;;;;;90.22;54.25;;;32.40;99.90;;;;;;5049657;28;20052;-70
2023/06/11 04:26:16;;;;;;;68.30;37.85;;;32.50;99.90;;;;;;5048699;28;20025;-72
2023/06/11 04:28:45;;;;;;;66.28;37.88;;;32.50;99.90;;;;;;5048924;28;20040;-71
2023/06/11 04:31:12;;;;;;;44.33;29.60;;;32.40;99.90;;;;;;5049472;28;20024;-71
2023/06/11 04:33:39;;;;;;;40.78;30.70;;;32.40;99.90;;;;;;5048259;28;20029;-71
2023/06/11 04:36:07;;;;;;;50.65;35.47;;;32.30;99.90;;;;;;5049240;28;20025;-71
2023/06/11 04:38:36;;;;;;;62.15;37.83;;;32.30;99.90;;;;;;5049466;28;20027;-70
2023/06/11 04:41:08;;;;;;;52.83;31.83;;;32.30;99.90;;;;;;5049241;28;20021;-71
2023/06/11 04:43:36;;;;;;;44.83;30.95;;;32.30;99.90;;;;;;5044701;28;20025;-71
2023/06/11 04:46:04;;;;;;;54.55;38.95;;;32.50;99.90;;;;;;5037382;28;20132;-71
2023/06/11 04:48:32;;;;;;;68.53;51.10;;;32.50;99.90;;;;;;5036846;28;20022;-71
2023/06/11 04:51:00;;;;;;;45.47;33.47;;;32.50;99.90;;;;;;5037054;28;20058;-71
2023/06/11 04:53:29;;;;;;;55.63;42.08;;;32.60;99.90;;;;;;5040224;28;20462;-71
2023/06/11 04:55:57;;;;;;;30.90;24.23;;;32.70;99.90;;;;;;5040866;28;20033;-74
2023/06/11 04:58:25;;;;;;;30.02;22.20;;;32.70;99.90;;;;;;5043201;28;20168;-72
2023/06/11 05:00:56;;;;;;;24.33;19.17;;;32.80;99.90;;;;;;5042182;28;20110;-71
2023/06/11 05:03:25;;;;;;;25.45;20.55;;;32.70;99.90;;;;;;5042111;28;20284;-73
2023/06/11 05:05:52;;;;;;;28.25;20.63;;;32.80;99.90;;;;;;5043583;28;20155;-70
2023/06/11 05:08:20;;;;;;;27.40;22.35;;;32.90;99.90;;;;;;5040945;28;20039;-70
2023/06/11 05:10:46;;;;;;;28.75;19.95;;;32.90;99.90;;;;;;5043768;28;20021;-74
2023/06/11 05:13:13;;;;;;;30.42;23.13;;;32.90;99.90;;;;;;5041776;28;20075;-71
2023/06/11 05:15:40;;;;;;;23.73;19.88;;;33.00;99.90;;;;;;5043782;28;20013;-70
2023/06/11 05:18:07;;;;;;;21.38;17.98;;;33.10;99.90;;;;;;5043172;28;20511;-70
2023/06/11 05:20:35;;;;;;;24.75;18.45;;;33.10;99.90;;;;;;5042146;28;20480;-69
2023/06/11 05:23:03;;;;;;;23.50;18.38;;;33.00;99.90;;;;;;5041064;28;20025;-71
2023/06/11 05:25:30;;;;;;;27.52;18.58;;;33.10;99.90;;;;;;5033787;28;20029;-71
2023/06/11 05:28:02;;;;;;;27.77;18.85;;;33.20;99.90;;;;;;5032101;28;20053;-69
2023/06/11 05:30:36;;;;;;;26.13;19.17;;;33.20;99.90;;;;;;5036494;28;20119;-70
2023/06/11 05:33:03;;;;;;;22.40;16.45;;;33.30;99.90;;;;;;5042861;28;20029;-71
2023/06/11 05:35:30;;;;;;;23.85;17.55;;;33.40;99.90;;;;;;5032306;28;20021;-70
2023/06/11 05:37:57;;;;;;;45.55;35.03;;;33.40;99.90;;;;;;5033520;28;20048;-70
2023/06/11 05:40:24;;;;;;;44.53;31.20;;;33.40;99.90;;;;;;5033564;28;20090;-70
2023/06/11 05:42:51;;;;;;;28.33;17.73;;;33.50;99.90;;;;;;5033711;28;20072;-69
2023/06/11 05:45:19;;;;;;;21.60;17.20;;;33.50;99.90;;;;;;5033491;28;20025;-72
2023/06/11 05:47:46;;;;;;;26.35;19.40;;;33.50;99.90;;;;;;5032123;28;20083;-69
2023/06/11 05:50:13;;;;;;;29.55;24.27;;;33.50;99.90;;;;;;5033406;28;20017;-68
2023/06/11 05:52:40;;;;;;;22.38;16.40;;;33.60;99.90;;;;;;5032756;28;20033;-70
2023/06/11 05:55:07;;;;;;;26.20;17.52;;;33.60;99.90;;;;;;5032442;28;20162;-72
2023/06/11 05:57:33;;;;;;;20.83;16.17;;;33.60;99.90;;;;;;5032837;28;20075;-70
2023/06/11 06:00:00;;;;;;;20.20;15.27;;;33.50;99.90;;;;;;5033021;28;20363;-71
2023/06/11 06:02:27;;;;;;;19.55;15.75;;;33.50;99.90;;;;;;5032332;28;20018;-71
2023/06/11 06:04:54;;;;;;;21.08;15.50;;;33.60;99.90;;;;;;5032151;28;20033;-70
2023/06/11 06:07:21;;;;;;;22.13;15.40;;;33.70;99.90;;;;;;5032030;28;20013;-70
2023/06/11 06:09:48;;;;;;;16.80;13.30;;;33.80;99.90;;;;;;5031876;28;20156;-70
2023/06/11 06:12:15;;;;;;;19.92;14.48;;;33.80;99.90;;;;;;5032134;28;20068;-70
2023/06/11 06:14:42;;;;;;;31.10;16.90;;;33.80;99.90;;;;;;5031826;28;20025;-72
2023/06/11 06:17:09;;;;;;;194.48;116.90;;;33.90;99.90;;;;;;5034198;28;20134;-70
2023/06/11 06:19:36;;;;;;;447.80;398.30;;;33.90;99.70;;;;;;5032115;28;20040;-71
2023/06/11 06:22:03;;;;;;;18.30;11.40;;;34.00;99.20;;;;;;5047171;28;20725;-71
2023/06/11 06:24:29;;;;;;;;;;;34.00;98.30;;;;;;5039044;28;20029;-72
2023/06/11 06:26:56;;;;;;;21.38;14.80;;;34.10;98.50;;;;;;5032329;28;20111;-72
2023/06/11 06:29:25;;;;;;;16.20;12.63;;;34.10;99.10;;;;;;5031904;28;20033;-71
2023/06/11 06:31:52;;;;;;;19.65;14.85;;;34.20;99.10;;;;;;5031859;28;20037;-71
2023/06/11 06:34:19;;;;;;;17.10;12.70;;;34.20;98.80;;;;;;5031873;28;20033;-72
2023/06/11 06:36:46;;;;;;;15.68;11.55;;;34.10;98.90;;;;;;5031771;28;20474;-71
2023/06/11 06:39:14;;;;;;;21.70;15.25;;;34.20;98.90;;;;;;5035176;28;20466;-70
2023/06/11 06:41:40;;;;;;;21.90;15.02;;;34.20;98.50;;;;;;5044350;28;20029;-71
2023/06/11 06:44:07;;;;;;;20.65;14.32;;;34.30;98.40;;;;;;5055934;28;20024;-69
2023/06/11 06:46:34;;;;;;;15.68;13.63;;;34.30;98.00;;;;;;5051348;28;20071;-73
2023/06/11 06:49:00;;;;;;;15.45;11.50;;;34.30;98.00;;;;;;5045100;28;20060;-71
2023/06/11 06:51:29;;;;;;;21.67;13.68;;;34.30;97.40;;;;;;5036017;28;20513;-69
2023/06/11 06:53:56;;;;;;;15.48;12.63;;;34.30;97.40;;;;;;5035976;28;20052;-70
2023/06/11 06:56:22;;;;;;;18.55;13.55;;;34.40;97.40;;;;;;5044005;28;20017;-71
2023/06/11 06:58:49;;;;;;;52.45;16.90;;;34.40;97.70;;;;;;5055749;28;20029;-69
2023/06/11 07:01:16;;;;;;;17.23;12.82;;;34.30;97.30;;;;;;5048640;28;20568;-71
2023/06/11 07:03:43;;;;;;;15.85;11.55;;;34.20;96.90;;;;;;5036377;28;20083;-70
2023/06/11 07:06:10;;;;;;;15.75;11.60;;;34.10;96.90;;;;;;5035955;28;20025;-68
2023/06/11 07:08:39;;;;;;;17.67;12.02;;;34.10;97.00;;;;;;5036001;28;20021;-71
2023/06/11 07:11:05;;;;;;;20.00;14.00;;;34.20;97.40;;;;;;5035896;28;20475;-71
2023/06/11 07:13:32;;;;;;;22.45;15.45;;;34.30;97.00;;;;;;5035713;28;20048;-70
2023/06/11 07:15:59;;;;;;;18.35;13.10;;;34.30;96.40;;;;;;5035820;28;20099;-71
2023/06/11 07:18:27;;;;;;;17.38;13.63;;;34.20;96.50;;;;;;5035665;28;20025;-71
2023/06/11 07:20:54;;;;;;;16.73;12.63;;;34.30;97.10;;;;;;5035300;28;20390;-71
2023/06/11 07:23:21;;;;;;;13.77;11.65;;;34.40;97.10;;;;;;5042077;28;20927;-71
2023/06/11 07:25:49;;;;;;;16.10;12.85;;;34.50;97.00;;;;;;5042246;28;20377;-70
2023/06/11 07:28:16;;;;;;;24.88;18.42;;;34.70;96.40;;;;;;5045213;28;20443;-69
2023/06/11 07:30:43;;;;;;;41.03;30.73;;;34.70;95.70;;;;;;5054860;28;20029;-71
2023/06/11 07:33:10;;;;;;;24.15;19.25;;;34.70;94.70;;;;;;5054968;28;20083;-72
2023/06/11 07:35:36;;;;;;;22.38;14.07;;;34.70;95.00;;;;;;5045691;28;20115;-66
2023/06/11 07:38:03;;;;;;;20.85;13.93;;;34.70;95.30;;;;;;5039546;28;20087;-66
2023/06/11 07:40:30;;;;;;;19.80;15.85;;;34.70;94.80;;;;;;5041741;28;20032;-70
2023/06/11 07:42:57;;;;;;;23.55;16.58;;;34.60;94.60;;;;;;5035501;28;20564;-68
2023/06/11 07:45:23;;;;;;;24.33;16.42;;;34.70;94.50;;;;;;5042610;28;20036;-69
2023/06/11 07:47:50;;;;;;;39.38;29.67;;;34.70;95.30;;;;;;5036768;28;20033;-71
2023/06/11 07:50:17;;;;;;;34.42;21.08;;;34.70;95.20;;;;;;5034191;28;20030;-69
2023/06/11 07:52:44;;;;;;;57.92;40.97;;;34.80;94.50;;;;;;5042832;28;20098;-70
2023/06/11 07:55:11;;;;;;;18.80;14.65;;;34.80;94.20;;;;;;5045092;28;20067;-73
2023/06/11 07:57:37;;;;;;;43.17;27.48;;;34.70;93.50;;;;;;5045864;28;20021;-68
2023/06/11 08:00:12;;;;;;;46.70;33.90;;;34.80;93.70;;;;;;5046222;28;20018;-70
2023/06/11 08:02:40;;;;;;;18.85;15.13;;;34.80;93.90;;;;;;5045701;28;20095;-69
2023/06/11 08:05:08;;;;;;;134.40;92.05;;;34.90;94.00;;;;;;5042452;28;20478;-69
2023/06/11 08:07:35;;;;;;;49.03;34.17;;;34.90;94.10;;;;;;5042061;28;20570;-70
2023/06/11 08:10:01;;;;;;;58.38;41.80;;;34.90;94.00;;;;;;5049823;28;20021;-70
2023/06/11 08:12:28;;;;;;;27.55;20.05;;;35.00;93.90;;;;;;5053552;28;20493;-69
2023/06/11 08:14:55;;;;;;;17.10;12.43;;;35.00;93.80;;;;;;5053884;28;20041;-69
2023/06/11 08:17:22;;;;;;;16.17;10.85;;;35.10;93.80;;;;;;5053167;28;20040;-68
2023/06/11 08:19:48;;;;;;;15.23;10.52;;;34.90;93.70;;;;;;5053274;28;20025;-68
2023/06/11 08:22:15;;;;;;;19.08;10.93;;;34.90;93.80;;;;;;5034509;28;20018;-70
2023/06/11 08:24:42;;;;;;;14.07;10.75;;;34.90;93.80;;;;;;5034312;28;20025;-68
2023/06/11 08:27:09;;;;;;;13.18;9.93;;;34.90;93.80;;;;;;5034800;28;20097;-71
2023/06/11 08:29:36;;;;;;;19.83;14.50;;;34.90;93.60;;;;;;5034499;28;20438;-70
2023/06/11 08:32:03;;;;;;;14.50;11.75;;;34.80;93.70;;;;;;5034405;28;20029;-70
2023/06/11 08:34:31;;;;;;;12.30;9.27;;;34.80;94.00;;;;;;5034115;28;20029;-71
2023/06/11 08:36:58;;;;;;;22.63;13.00;;;34.80;94.20;;;;;;5033930;28;20021;-70
2023/06/11 08:39:25;;;;;;;14.65;11.45;;;34.80;94.10;;;;;;5034311;28;20021;-70
2023/06/11 08:41:52;;;;;;;19.15;12.20;;;34.80;94.30;;;;;;5034004;28;20075;-70
2023/06/11 08:44:20;;;;;;;17.13;10.02;;;34.70;94.00;;;;;;5033936;28;20052;-71
2023/06/11 08:46:49;;;;;;;24.02;12.60;;;34.60;94.00;;;;;;5040092;28;20582;-70
2023/06/11 08:49:21;;;;;;;17.42;11.65;;;34.60;93.80;;;;;;5041030;28;20547;-68
2023/06/11 08:51:48;;;;;;;;;;;34.50;93.50;;;;;;5041179;28;20045;-69
2023/06/11 08:54:16;;;;;;;76.03;56.20;;;34.40;93.60;;;;;;5037609;28;20290;-69
2023/06/11 08:56:44;;;;;;;36.70;29.15;;;34.30;93.30;;;;;;5041233;28;20014;-68
2023/06/11 08:59:11;;;;;;;40.22;29.25;;;34.30;94.20;;;;;;5042042;28;20036;-69
2023/06/11 09:01:40;;;;;;;21.02;15.00;;;34.30;94.40;;;;;;5042621;28;20021;-71
2023/06/11 09:04:07;;;;;;;48.28;36.35;;;34.30;94.70;;;;;;5042222;28;20025;-64
2023/06/11 09:06:34;;;;;;;52.33;35.45;;;34.30;94.50;;;;;;5040754;28;20049;-67
2023/06/11 09:09:07;;;;;;;29.00;21.45;;;34.40;94.50;;;;;;5045128;28;20885;-67
2023/06/11 09:11:35;;;;;;;24.73;15.27;;;34.50;94.40;;;;;;5040465;28;20043;-68
2023/06/11 09:14:03;;;;;;;16.77;10.52;;;34.50;94.30;;;;;;5043447;28;20031;-67
2023/06/11 09:16:41;;;;;;;25.13;14.90;;;34.50;94.70;;;;;;5042097;28;20037;-67
2023/06/11 09:19:14;;;;;;;15.98;11.45;;;34.50;94.20;;;;;;5050856;28;20029;-67
2023/06/11 09:21:46;;;;;;;37.30;24.63;;;34.50;94.00;;;;;;5044730;28;20037;-69
2023/06/11 09:24:12;;;;;;;;;;;34.40;93.80;;;;;;5041160;28;20365;-67
2023/06/11 09:26:39;;;;;;;28.15;13.80;;;34.30;94.00;;;;;;5043253;28;19909;-70
2023/06/11 09:29:06;;;;;;;16.30;9.68;;;34.20;93.90;;;;;;5041814;28;20021;-70
2023/06/11 09:31:33;;;;;;;11.77;8.07;;;34.20;94.20;;;;;;5042191;28;20159;-69
2023/06/11 09:34:03;;;;;;;10.68;7.28;;;34.20;94.40;;;;;;5043417;28;20108;-69
2023/06/11 09:36:31;;;;;;;17.33;8.30;;;34.20;94.80;;;;;;5041591;28;20025;-69
2023/06/11 09:38:58;;;;;;;18.40;10.80;;;34.20;95.00;;;;;;5042206;28;20013;-69
2023/06/11 09:41:26;;;;;;;19.50;11.40;;;34.20;94.90;;;;;;5043528;28;20024;-69
2023/06/11 09:43:53;;;;;;;27.67;11.43;;;34.20;94.90;;;;;;5040176;28;20430;-68
2023/06/11 09:46:22;;;;;;;11.30;7.78;;;34.20;94.90;;;;;;5033429;28;20022;-70
2023/06/11 09:48:49;;;;;;;9.65;7.28;;;34.20;94.80;;;;;;5035667;28;20086;-72
2023/06/11 09:51:21;;;;;;;15.10;7.93;;;34.10;95.20;;;;;;5035641;28;20071;-69
2023/06/11 09:53:51;;;;;;;13.00;7.55;;;34.10;94.90;;;;;;5033144;28;20025;-69
2023/06/11 09:56:19;;;;;;;14.02;8.85;;;34.00;94.70;;;;;;5033148;28;20032;-70
2023/06/11 09:58:48;;;;;;;17.75;8.75;;;34.00;94.80;;;;;;5033155;28;20025;-70
2023/06/11 10:01:16;;;;;;;18.30;9.13;;;34.00;95.00;;;;;;5033172;28;20026;-68
2023/06/11 10:03:43;;;;;;;18.95;10.27;;;34.10;95.20;;;;;;5033116;28;20387;-70
2023/06/11 10:06:16;;;;;;;14.80;9.60;;;34.00;95.40;;;;;;5032896;28;20529;-69
2023/06/11 10:08:45;;;;;;;18.65;9.70;;;34.00;95.30;;;;;;5038425;28;20033;-70
2023/06/11 10:11:12;;;;;;;20.05;9.05;;;34.00;95.40;;;;;;5044569;28;20032;-70
2023/06/11 10:13:40;;;;;;;13.52;8.43;;;34.00;95.10;;;;;;5040461;28;20036;-70
2023/06/11 10:16:09;;;;;;;20.17;10.32;;;33.90;95.30;;;;;;5045617;28;20518;-69
2023/06/11 10:18:36;;;;;;;20.33;11.70;;;33.90;95.30;;;;;;5042683;28;20028;-69
2023/06/11 10:21:04;;;;;;;20.50;11.23;;;33.80;96.00;;;;;;5042610;28;20019;-71
2023/06/11 10:23:36;;;;;;;61.30;36.58;;;33.80;96.60;;;;;;5042029;28;20359;-69
2023/06/11 10:26:03;;;;;;;30.23;17.25;;;33.70;96.90;;;;;;5042010;28;20429;-75
2023/06/11 10:28:36;;;;;;;23.95;10.10;;;33.70;97.00;;;;;;5044669;28;20033;-75
2023/06/11 10:31:03;;;;;;;18.90;11.75;;;33.60;96.70;;;;;;5041393;28;20017;-72
2023/06/11 10:33:35;;;;;;;19.40;11.07;;;33.50;96.90;;;;;;5041764;28;20068;-75
2023/06/11 10:36:02;;;;;;;18.65;11.35;;;33.50;96.80;;;;;;5041754;28;20021;-76
2023/06/11 10:38:30;;;;;;;18.73;10.48;;;33.40;96.60;;;;;;5042243;28;20021;-68
2023/06/11 10:41:03;;;;;;;17.65;11.10;;;33.30;96.60;;;;;;5041787;28;20122;-69
2023/06/11 10:43:32;;;;;;;16.77;11.25;;;33.20;96.70;;;;;;5047588;28;20758;-70
2023/06/11 10:46:02;;;;;;;42.00;27.63;;;33.20;96.80;;;;;;5047643;28;20029;-71
2023/06/11 10:48:32;;;;;;;27.80;17.40;;;33.20;97.20;;;;;;5046972;28;20493;-70
2023/06/11 10:51:03;;;;;;;34.97;24.80;;;33.30;97.50;;;;;;5047776;28;20028;-70
2023/06/11 10:53:35;;;;;;;35.97;22.67;;;33.20;97.50;;;;;;5047226;28;20027;-73
2023/06/11 10:56:02;;;;;;;25.27;16.23;;;33.20;97.60;;;;;;5046734;28;20032;-72
2023/06/11 10:58:31;;;;;;;22.17;14.82;;;33.20;97.80;;;;;;5045473;28;20036;-70
2023/06/11 11:00:58;;;;;;;31.25;15.23;;;33.10;98.30;;;;;;5042121;28;20426;-71
2023/06/11 11:03:30;;;;;;;44.88;31.80;;;33.00;98.50;;;;;;5044880;28;20535;-73
2023/06/11 11:05:57;;;;;;;82.68;57.88;;;32.90;98.40;;;;;;5044817;28;20200;-70
2023/06/11 11:08:24;;;;;;;78.80;53.17;;;32.90;98.50;;;;;;5041004;28;20037;-71
2023/06/11 11:10:55;;;;;;;58.28;40.33;;;32.90;98.60;;;;;;5049003;28;20031;-72
2023/06/11 11:13:21;;;;;;;20.60;13.00;;;32.80;98.50;;;;;;5049301;28;20525;-70
2023/06/11 11:15:49;;;;;;;32.38;23.63;;;32.80;98.60;;;;;;5048408;28;20120;-72
2023/06/11 11:18:17;;;;;;;32.55;22.70;;;32.80;98.90;;;;;;5038368;28;20144;-73
2023/06/11 11:20:45;;;;;;;24.77;14.75;;;32.80;99.10;;;;;;5038729;28;20017;-70
2023/06/11 11:23:11;;;;;;;20.05;11.52;;;32.70;99.20;;;;;;5048463;28;20108;-72
2023/06/11 11:25:42;;;;;;;42.17;22.65;;;32.70;99.40;;;;;;5038780;28;20072;-71
2023/06/11 11:28:12;;;;;;;26.95;16.40;;;32.60;99.60;;;;;;5046557;28;20040;-70
2023/06/11 11:30:40;;;;;;;19.65;13.48;;;32.60;99.80;;;;;;5038178;28;20025;-74
2023/06/11 11:33:07;;;;;;;19.63;12.63;;;32.50;99.70;;;;;;5044066;28;20032;-74
2023/06/11 11:35:44;;;;;;;26.85;17.98;;;32.50;99.90;;;;;;5050435;28;20471;-75
2023/06/11 11:38:11;;;;;;;34.92;23.35;;;32.40;99.90;;;;;;5050735;28;20021;-71
2023/06/11 11:40:38;;;;;;;22.67;14.90;;;32.40;99.90;;;;;;5035278;28;20379;-71
2023/06/11 11:43:04;;;;;;;25.33;15.60;;;32.40;99.90;;;;;;5035674;28;20021;-74
2023/06/11 11:45:34;;;;;;;15.57;11.25;;;32.40;99.90;;;;;;5035942;28;20029;-73
2023/06/11 11:48:02;;;;;;;36.13;25.90;;;32.30;99.90;;;;;;5035662;28;20029;-72
2023/06/11 11:50:30;;;;;;;17.73;11.02;;;32.20;99.90;;;;;;5035204;28;20108;-72
2023/06/11 11:53:18;;;;;;;13.88;9.13;;;32.20;99.90;;;;;;5037939;28;20029;-70
2023/06/11 11:55:46;;;;;;;16.98;10.02;;;32.20;99.90;;;;;;5050716;28;20120;-71
2023/06/11 11:58:16;;;;;;;14.88;11.98;;;32.20;99.90;;;;;;5052010;28;20048;-70
2023/06/11 12:00:48;;;;;;;47.58;31.70;;;32.20;99.90;;;;;;5048491;28;20048;-70
2023/06/11 12:03:19;;;;;;;43.03;28.90;;;32.20;99.90;;;;;;5039644;28;20116;-69
2023/06/11 12:05:59;;;;;;;35.22;21.95;;;32.10;99.90;;;;;;5041559;28;20017;-70
2023/06/11 12:08:27;;;;;;;22.85;14.32;;;32.00;99.90;;;;;;5045303;28;20071;-73
2023/06/11 12:10:54;;;;;;;26.27;17.17;;;31.90;99.90;;;;;;5046679;28;20044;-69
2023/06/11 12:13:21;;;;;;;33.42;19.63;;;32.00;99.90;;;;;;5038878;28;20021;-69
2023/06/11 12:15:48;;;;;;;77.47;57.15;;;32.00;99.90;;;;;;5040079;28;20120;-71
2023/06/11 12:18:15;;;;;;;45.97;20.38;;;32.00;99.90;;;;;;5042021;28;20018;-69
2023/06/11 12:20:42;;;;;;;27.13;16.30;;;32.00;99.90;;;;;;5040926;28;20104;-70
2023/06/11 12:23:09;;;;;;;26.77;15.07;;;32.00;99.90;;;;;;5043753;28;20022;-67
2023/06/11 12:25:35;;;;;;;30.25;17.15;;;31.90;99.90;;;;;;5043559;28;20032;-68
2023/06/11 12:28:03;;;;;;;22.90;15.25;;;32.00;99.90;;;;;;5041234;28;20489;-68
2023/06/11 12:30:31;;;;;;;23.25;15.10;;;32.00;99.90;;;;;;5040268;28;20033;-69
2023/06/11 12:32:58;;;;;;;26.40;15.60;;;31.90;99.90;;;;;;5040822;28;20026;-69
2023/06/11 12:35:27;;;;;;;19.60;14.15;;;31.80;99.90;;;;;;5042932;28;20028;-70
2023/06/11 12:37:54;;;;;;;80.35;55.63;;;31.90;99.90;;;;;;5039865;28;20022;-68